Dedryck Lukaku

Olheiro-Chefe - KV Oostende
13 Abr 2028
Quinta-feira
Processo

Personalidade

Adaptabilidade (13) Ambição (20) Controvérsia (15) Lealdade (18) Pressão (19) Profissionalismo (1) Espírito Esportivo (3) Temperamento (10)

Perfil

Estilo de Treinamento Democrático
Licença Nacional B
Determinação 12
Gestão de Pessoas 8
Motivação 10
Disciplina 12
Satisfação no Trabalho
100%
Fadiga
0%
Função Olheiro-Chefe
Salário 36.6K p/s
Contrato 14.03.2030

Desempenho

Comportamento Bom
Eficácia do Treinamento
52%
Desenvolvimento do Jogador
20%
Prevenção de Lesões
25%
Implementação Tática
45%

Monitorando agora

58
Jogador Clube Status Habilidade Confiança Observado Última observação Último voto
Samed Baždar Sint-Truiden Perdido 122 / 122 76% 1 24.01.2028 Aprovar
Nicolas Sport Recife Ativo 99 / 107 40% 1 07.01.2028 -
Jon Esenga IF Elfsborg Ativo 87 / 97 40% 1 07.01.2028 -
Kauã Moraes Cruzeiro Ativo 123 / 117 40% 1 07.01.2028 -
Tylel Tati AJ Auxerre Ativo 123 / 134 40% 1 05.01.2028 -
Louka Gautier Chamois Niortais Ativo 96 / 111 40% 1 05.01.2028 -
Sidiki Chérif Coventry City Ativo 138 / 134 40% 2 02.01.2028 -
Yojan Garcés America de Cali Negociando 107 / 113 40% 1 02.01.2028 -
Paris Brunner Monaco Ativo 121 / 129 40% 1 02.01.2028 -
Darlvin Yeboah Bechem United Ativo 80 / 101 40% 2 16.08.2027 -
Hassan Beja AFC Leopards Ativo 84 / 105 40% 1 16.08.2027 -
Victor Orakpo OGC Nice Ativo 115 / 130 40% 1 16.08.2027 -
Rayan Bournemouth Ativo 139 / 136 40% 3 09.08.2027 -
Kabiru Abdullahi Northampton Town Ativo 96 / 94 40% 2 09.08.2027 -
Risilanu Ismail El-Kanemi Warriors Ativo 81 / 106 40% 1 09.08.2027 -
Tommaso Ravaglioli AlbinoLeffe Ativo 90 / 105 40% 1 27.07.2027 -
Pape Diong Westerlo Ativo 114 / 133 40% 1 05.07.2027 -
Marius Courcoul Olympique de Marseille Ativo 114 / 133 40% 1 05.07.2027 -
Gady Beyuku Modena Ativo 118 / 117 40% 1 21.06.2027 -
Jorge Salinas Racing Santander Ativo 126 / 132 40% 1 01.06.2027 -
Alessandro Bolzan Sorrento Ativo 94 / 88 40% 1 31.01.2027 -
Dom Ballard Leyton Orient Ativo 114 / 134 40% 3 30.01.2027 -
Don-Angelo Konadu Ajax Ativo 111 / 110 40% 2 28.01.2027 -
Edmund Baidoo Borussia Dortmund Ativo 117 / 130 40% 1 28.01.2027 -
David Kalokoh Ajax Ativo 114 / 118 40% 3 27.01.2027 -
Elijah Adebayo Luton Town Ativo 128 / 128 40% 1 25.01.2027 -
Christian Kouamé CSKA Moscow Ativo 130 / 119 40% 1 25.01.2027 -
Will Lankshear Middlesbrough Ativo 123 / 119 40% 2 23.01.2027 -
Eden Batshuayi Charleroi Ativo 102 / 112 40% 3 22.01.2027 -
Roberto Iliev Slavia Sofia Ativo 103 / 113 40% 1 22.01.2027 -
Luke Baartman Ghazl El Mahalla Ativo 111 / 102 40% 2 20.01.2027 -
Luca Maiorano Ospitaletto Ativo 100 / 106 40% 2 20.01.2027 -
Leo Castledine Middlesbrough Ativo 129 / 126 40% 3 19.01.2027 -
Mfundo Vilakazi Kaizer Chiefs Ativo 105 / 124 40% 1 19.01.2027 -
Rocco Vata Watford Ativo 121 / 124 40% 1 19.01.2027 -
Dramane Kamagaté USM Alger Ativo 109 / 100 40% 2 18.01.2027 -
Mateus Mide Porto Ativo 96 / 110 40% 1 14.01.2027 -
Iwan Morgan Grimsby Town Ativo 113 / 122 40% 1 13.01.2027 -
Francesco Pio Esposito Inter Ativo 138 / 155 40% 1 12.01.2027 -
Nathan Mbala FC Metz Ativo 96 / 94 40% 1 08.01.2027 -
Otto Stange Hamburger SV Ativo 107 / 134 40% 1 07.01.2027 -
Ryan Oné Sheffield United Ativo 108 / 122 40% 1 04.01.2027 -
Oumar Camara Vitoria Guimaraes Ativo 123 / 127 40% 1 01.01.2027 -
Darren Yapi Colorado Rapids Ativo 94 / 122 40% 1 30.08.2026 -
Marcos Gómez Hrvatski Dragovoljac Ativo 97 / 92 40% 1 30.08.2026 -
Serge Daura Dynamo Douala Ativo 87 / 90 40% 1 25.08.2026 -
Mark Verkuijl Ajax Ativo 103 / 119 40% 1 17.08.2026 -
Sven Bouland Groningen Ativo 93 / 107 40% 1 17.08.2026 -
Yaël Thébault Stade Rennais Ativo 84 / 96 40% 2 10.08.2026 -
Joaquin Seys Club Brugge Ativo 117 / 133 40% 1 10.08.2026 -
Peter Quispel PSV Ativo 92 / 90 40% 1 09.08.2026 -
Bohdan Budko AZ Ativo 111 / 112 40% 1 09.08.2026 -
Julien Astic Clermont Foot Ativo 85 / 101 40% 2 07.08.2026 -
Harrison Murray-Campbell Chelsea Ativo 90 / 112 40% 1 06.08.2026 -
Kyriani Sabbe Club Brugge Ativo 111 / 113 40% 1 05.08.2026 -
Sékou Doucouré FC Nantes Ativo 90 / 92 40% 1 03.08.2026 -
Mathieu Patouillet Stade Brestois Ativo 108 / 110 40% 1 01.08.2026 -
Luca Zidane Leganés Ativo 125 / 131 40% 1 01.08.2026 -